createdAt,value
2022-10-18T00:00:18.530Z,82.87
2022-10-18T00:02:45.245Z,83.25
2022-10-18T00:05:11.834Z,83.80
2022-10-18T00:07:38.464Z,84.63
2022-10-18T00:10:05.735Z,84.81
2022-10-18T00:12:36.673Z,84.85
2022-10-18T00:15:06.251Z,85.48
2022-10-18T00:17:35.697Z,85.75
2022-10-18T00:20:02.438Z,85.96
2022-10-18T00:22:29.325Z,86.04
2022-10-18T00:24:56.329Z,86.08
2022-10-18T00:27:22.923Z,85.58
2022-10-18T00:29:53.049Z,85.47
2022-10-18T00:32:19.689Z,85.52
2022-10-18T00:34:46.487Z,84.88
2022-10-18T00:37:13.050Z,85.07
2022-10-18T00:39:39.794Z,84.76
2022-10-18T00:42:06.436Z,85.08
2022-10-18T00:44:33.003Z,84.53
2022-10-18T00:47:07.202Z,85.22
2022-10-18T00:49:39.097Z,84.52
2022-10-18T00:52:28.005Z,84.13
2022-10-18T00:54:56.604Z,84.67
2022-10-18T00:57:24.232Z,84.57
2022-10-18T00:59:51.777Z,84.39
2022-10-18T01:02:18.717Z,84.65
2022-10-18T01:04:46.699Z,84.13
2022-10-18T01:07:25.734Z,84.35
2022-10-18T01:10:15.245Z,84.54
2022-10-18T01:13:15.860Z,83.98
2022-10-18T01:16:00.599Z,84.36
2022-10-18T01:18:44.333Z,84.28
2022-10-18T01:21:42.731Z,84.24
2022-10-18T01:24:40.794Z,84.27
2022-10-18T01:27:38.013Z,84.18
2022-10-18T01:30:26.037Z,84.22
2022-10-18T01:32:56.564Z,84.39
2022-10-18T01:35:39.268Z,84.45
2022-10-18T01:38:11.535Z,84.56
2022-10-18T01:40:41.808Z,84.15
2022-10-18T01:43:10.253Z,83.90
2022-10-18T01:45:37.211Z,84.19
2022-10-18T01:48:04.397Z,83.78
2022-10-18T01:50:33.495Z,83.71
2022-10-18T01:53:00.602Z,84.03
2022-10-18T01:55:45.177Z,83.73
2022-10-18T01:58:28.739Z,83.85
2022-10-18T02:01:05.391Z,83.46
2022-10-18T02:03:36.928Z,84.01
2022-10-18T02:06:36.646Z,83.76
2022-10-18T02:09:12.323Z,83.32
2022-10-18T02:11:41.532Z,83.56
2022-10-18T02:14:13.697Z,83.75
2022-10-18T02:16:49.480Z,83.29
2022-10-18T02:21:58.007Z,83.94
2022-10-18T02:24:30.055Z,83.79
2022-10-18T02:26:56.915Z,83.58
2022-10-18T02:29:23.904Z,83.72
2022-10-18T02:31:55.570Z,83.67
2022-10-18T02:34:35.778Z,83.52
2022-10-18T02:37:03.078Z,83.78
2022-10-18T02:39:34.159Z,83.46
2022-10-18T02:42:01.174Z,83.69
2022-10-18T02:44:27.802Z,83.67
2022-10-18T02:46:54.587Z,83.84
2022-10-18T02:49:21.384Z,83.46
2022-10-18T02:51:47.984Z,83.48
2022-10-18T02:54:14.848Z,83.30
2022-10-18T02:56:41.437Z,83.38
2022-10-18T02:59:08.231Z,83.22
2022-10-18T03:01:38.584Z,83.51
2022-10-18T03:04:05.302Z,83.77
2022-10-18T03:06:32.895Z,83.33
2022-10-18T03:09:01.748Z,83.32
2022-10-18T03:11:28.350Z,83.11
2022-10-18T03:13:55.003Z,83.25
2022-10-18T03:16:21.667Z,83.25
2022-10-18T03:18:48.328Z,83.38
2022-10-18T03:21:15.156Z,83.28
2022-10-18T03:23:42.655Z,83.39
2022-10-18T03:26:10.493Z,83.28
2022-10-18T03:28:37.814Z,83.32
2022-10-18T03:31:05.359Z,83.63
2022-10-18T03:33:33.394Z,83.26
2022-10-18T03:36:00.347Z,83.26
2022-10-18T03:38:27.379Z,83.40
2022-10-18T03:40:53.993Z,83.21
2022-10-18T03:43:20.790Z,83.42
2022-10-18T03:45:47.548Z,83.11
2022-10-18T03:48:14.436Z,82.68
2022-10-18T03:50:41.164Z,83.02
2022-10-18T03:53:07.787Z,82.80
2022-10-18T03:55:34.551Z,82.92
2022-10-18T03:58:01.291Z,83.26
2022-10-18T04:00:28.059Z,82.93
2022-10-18T04:02:55.996Z,83.21
2022-10-18T04:05:28.473Z,83.28
2022-10-18T04:07:56.138Z,83.07
2022-10-18T04:10:23.524Z,83.25
2022-10-18T04:12:51.311Z,82.94
2022-10-18T04:16:47.464Z,82.98
2022-10-18T04:19:15.277Z,82.88
2022-10-18T04:21:43.025Z,82.80
2022-10-18T04:24:10.344Z,82.92
2022-10-18T04:26:36.983Z,83.21
2022-10-18T04:29:03.967Z,83.24
2022-10-18T04:31:31.233Z,83.41
2022-10-18T04:33:58.012Z,83.37
2022-10-18T04:36:25.155Z,83.44
2022-10-18T04:38:53.203Z,83.56
2022-10-18T04:41:21.459Z,83.26
2022-10-18T04:43:49.193Z,83.83
2022-10-18T04:46:17.658Z,83.76
2022-10-18T04:48:44.564Z,83.12
2022-10-18T04:51:11.462Z,83.09
2022-10-18T04:53:38.244Z,83.26
2022-10-18T04:56:05.299Z,82.61
2022-10-18T04:58:32.895Z,82.87
2022-10-18T05:00:59.966Z,82.50
2022-10-18T05:03:26.642Z,82.87
2022-10-18T05:06:01.774Z,82.88
2022-10-18T05:08:30.693Z,82.50
2022-10-18T05:10:57.525Z,82.16
2022-10-18T05:13:24.745Z,82.20
2022-10-18T05:15:51.848Z,81.86
2022-10-18T05:18:18.559Z,81.94
2022-10-18T05:20:45.200Z,81.16
2022-10-18T05:23:11.856Z,81.36
2022-10-18T05:25:39.724Z,81.38
2022-10-18T05:28:15.593Z,81.83
2022-10-18T05:30:53.061Z,81.17
2022-10-18T05:33:19.615Z,81.00
2022-10-18T05:35:46.239Z,80.72
2022-10-18T05:38:12.971Z,80.98
2022-10-18T05:40:39.696Z,80.65
2022-10-18T05:43:06.299Z,80.70
2022-10-18T05:45:32.958Z,80.57
2022-10-18T05:47:59.809Z,80.36
2022-10-18T05:50:26.421Z,80.62
2022-10-18T05:53:02.698Z,80.29
2022-10-18T05:55:38.835Z,80.75
2022-10-18T05:58:06.276Z,80.80
2022-10-18T06:00:33.084Z,80.63
2022-10-18T06:03:00.524Z,80.37
2022-10-18T06:05:27.824Z,80.53
2022-10-18T06:07:54.485Z,80.21
2022-10-18T06:10:21.312Z,80.21
2022-10-18T06:12:48.088Z,79.92
2022-10-18T06:15:14.837Z,78.81
2022-10-18T06:17:41.476Z,79.27
2022-10-18T06:20:08.748Z,79.07
2022-10-18T06:22:35.439Z,78.86
2022-10-18T06:25:02.055Z,78.28
2022-10-18T06:27:29.094Z,78.71
2022-10-18T06:29:55.945Z,78.63
2022-10-18T06:33:03.493Z,78.37
2022-10-18T06:35:30.138Z,78.00
2022-10-18T06:37:57.784Z,77.76
2022-10-18T06:40:24.743Z,77.90
2022-10-18T06:43:00.289Z,77.73
2022-10-18T06:45:27.398Z,77.47
2022-10-18T06:47:53.960Z,76.59
2022-10-18T06:50:20.500Z,77.40
2022-10-18T06:52:48.858Z,77.22
2022-10-18T06:55:15.513Z,76.72
2022-10-18T06:57:42.030Z,76.37
2022-10-18T07:00:09.310Z,76.11
2022-10-18T07:02:37.436Z,76.21
2022-10-18T07:05:04.172Z,76.27
2022-10-18T07:07:31.501Z,75.90
2022-10-18T07:09:58.580Z,75.37
2022-10-18T07:12:25.315Z,75.23
2022-10-18T07:14:51.937Z,74.79
2022-10-18T07:17:18.596Z,73.74
2022-10-18T07:19:45.238Z,73.97
2022-10-18T07:22:11.884Z,73.91
2022-10-18T07:24:39.559Z,74.35
2022-10-18T07:27:06.347Z,74.26
2022-10-18T07:29:34.208Z,74.83
2022-10-18T07:32:00.808Z,74.42
2022-10-18T07:34:28.939Z,74.44
2022-10-18T07:36:55.646Z,74.59
2022-10-18T07:39:22.440Z,74.46
2022-10-18T07:41:49.158Z,73.97
2022-10-18T07:44:15.864Z,73.66
2022-10-18T07:46:42.899Z,73.33
2022-10-18T07:49:09.546Z,73.42
2022-10-18T07:51:36.218Z,72.37
2022-10-18T07:54:03.083Z,72.77
2022-10-18T07:56:29.814Z,72.35
2022-10-18T07:58:56.678Z,71.94
2022-10-18T08:01:24.549Z,71.74
2022-10-18T08:03:52.306Z,71.12
2022-10-18T08:06:21.597Z,70.98
2022-10-18T08:08:48.570Z,70.17
2022-10-18T08:11:20.650Z,69.74
2022-10-18T08:13:47.574Z,68.35
2022-10-18T08:16:17.839Z,69.00
2022-10-18T08:18:44.705Z,68.13
2022-10-18T08:21:14.624Z,67.43
2022-10-18T08:23:41.697Z,67.47
2022-10-18T08:26:10.925Z,67.92
2022-10-18T08:28:38.476Z,68.17
2022-10-18T08:31:11.425Z,67.69
2022-10-18T08:33:39.669Z,68.00
2022-10-18T08:36:08.752Z,67.69
2022-10-18T08:38:37.219Z,65.83
2022-10-18T08:41:45.035Z,65.54
2022-10-18T08:44:20.420Z,64.09
2022-10-18T08:46:52.089Z,63.45
2022-10-18T08:49:28.380Z,63.13
2022-10-18T08:51:57.543Z,63.35
2022-10-18T08:54:35.044Z,63.10
2022-10-18T08:57:04.486Z,61.48
2022-10-18T08:59:38.435Z,61.94
2022-10-18T09:02:27.445Z,61.45
2022-10-18T09:05:21.807Z,61.37
2022-10-18T09:08:13.142Z,60.99
2022-10-18T09:10:42.623Z,60.64
2022-10-18T09:13:32.350Z,59.86
2022-10-18T09:16:01.034Z,59.31
2022-10-18T09:18:57.284Z,60.09
2022-10-18T09:21:39.662Z,60.39
2022-10-18T09:24:18.090Z,60.06
2022-10-18T09:26:47.246Z,60.43
2022-10-18T09:29:40.947Z,60.77
2022-10-18T09:32:21.150Z,61.57
2022-10-18T09:34:59.929Z,61.94
2022-10-18T09:37:30.635Z,61.24
2022-10-18T09:40:19.052Z,61.78
2022-10-18T09:43:02.476Z,62.18
2022-10-18T09:45:33.977Z,62.38
2022-10-18T09:48:22.932Z,62.44
2022-10-18T09:51:00.797Z,62.92
2022-10-18T09:54:01.192Z,63.56
2022-10-18T09:56:51.475Z,64.05
2022-10-18T09:59:31.321Z,63.80
2022-10-18T10:01:58.084Z,63.52
2022-10-18T10:04:24.669Z,63.29
2022-10-18T10:06:53.559Z,63.04
2022-10-18T10:09:31.804Z,62.66
2022-10-18T10:11:58.841Z,62.37
2022-10-18T10:14:28.197Z,63.06
2022-10-18T10:16:58.614Z,63.72
2022-10-18T10:19:30.660Z,63.85
2022-10-18T10:22:01.941Z,64.22
2022-10-18T10:24:37.131Z,64.57
2022-10-18T10:27:16.829Z,64.83
2022-10-18T10:29:46.266Z,65.45
2022-10-18T10:32:15.766Z,65.64
2022-10-18T10:34:44.742Z,65.64
2022-10-18T10:37:31.793Z,65.70
2022-10-18T10:40:18.822Z,65.78
2022-10-18T10:43:13.012Z,65.51
2022-10-18T10:45:59.893Z,65.88
2022-10-18T10:48:32.977Z,65.68
2022-10-18T10:51:11.069Z,65.76
2022-10-18T10:53:50.793Z,65.97
2022-10-18T10:56:23.363Z,65.33
2022-10-18T10:58:51.394Z,65.20
2022-10-18T11:01:22.673Z,64.31
2022-10-18T11:03:52.135Z,64.29
2022-10-18T11:06:44.653Z,64.42
2022-10-18T11:09:33.491Z,64.58
2022-10-18T11:12:13.550Z,64.06
2022-10-18T11:14:44.275Z,63.60
2022-10-18T11:17:36.281Z,62.81
2022-10-18T11:20:16.150Z,62.70
2022-10-18T11:23:02.530Z,62.32
2022-10-18T11:25:35.904Z,61.83
2022-10-18T11:28:27.769Z,62.37
2022-10-18T11:31:13.140Z,62.74
2022-10-18T11:34:08.653Z,62.71
2022-10-18T11:37:15.914Z,62.49
2022-10-18T11:40:14.434Z,62.08
2022-10-18T11:42:52.919Z,60.75
2022-10-18T11:48:36.587Z,59.75
2022-10-18T11:51:38.732Z,59.85
2022-10-18T11:54:37.088Z,59.79
2022-10-18T11:57:24.441Z,60.00
2022-10-18T12:00:12.297Z,59.83
2022-10-18T12:03:01.534Z,59.75
2022-10-18T12:05:29.458Z,59.33
2022-10-18T12:08:07.439Z,59.25
2022-10-18T12:10:52.547Z,59.80
2022-10-18T12:13:43.092Z,58.51
2022-10-18T12:16:12.299Z,57.61
2022-10-18T12:19:11.924Z,56.43
2022-10-18T12:21:39.155Z,55.71
2022-10-18T12:24:16.180Z,54.08
2022-10-18T12:26:43.121Z,55.30
2022-10-18T12:29:27.542Z,56.25
2022-10-18T12:32:05.841Z,56.46
2022-10-18T12:34:43.755Z,56.26
2022-10-18T12:37:26.499Z,56.77
2022-10-18T12:40:16.788Z,56.82
2022-10-18T12:42:48.009Z,57.42
2022-10-18T12:45:35.374Z,57.64
2022-10-18T12:48:06.908Z,56.92
2022-10-18T12:50:40.523Z,57.59
2022-10-18T12:53:10.091Z,57.28
2022-10-18T12:55:39.103Z,56.93
2022-10-18T12:58:14.794Z,56.72
2022-10-18T13:00:51.600Z,56.03
2022-10-18T13:03:18.187Z,56.62
2022-10-18T13:05:53.378Z,56.88
2022-10-18T13:08:41.977Z,57.56
2022-10-18T13:11:08.744Z,57.82
2022-10-18T13:13:57.062Z,58.29
2022-10-18T13:16:36.660Z,58.64
2022-10-18T13:19:21.493Z,58.98
2022-10-18T13:22:09.285Z,58.37
2022-10-18T13:25:05.474Z,58.89
2022-10-18T13:27:43.268Z,59.20
2022-10-18T13:30:44.452Z,59.56
2022-10-18T13:33:31.444Z,59.65
2022-10-18T13:36:21.642Z,59.50
2022-10-18T13:39:05.950Z,59.56
2022-10-18T13:41:56.669Z,60.05
2022-10-18T13:44:31.849Z,60.06
2022-10-18T13:47:16.614Z,59.77
2022-10-18T13:49:59.334Z,60.28
2022-10-18T13:52:46.874Z,60.17
2022-10-18T13:55:55.924Z,60.48
2022-10-18T13:58:49.219Z,60.59
2022-10-18T14:01:57.068Z,60.74
2022-10-18T14:05:10.530Z,61.01
2022-10-18T14:07:44.473Z,61.22
2022-10-18T14:10:43.421Z,61.28
2022-10-18T14:13:21.374Z,61.66
2022-10-18T14:15:51.703Z,61.75
2022-10-18T14:18:41.276Z,62.00
2022-10-18T14:21:19.861Z,62.22
2022-10-18T14:23:48.351Z,62.43
2022-10-18T14:26:18.011Z,62.63
2022-10-18T14:28:59.601Z,62.93
2022-10-18T14:31:27.618Z,63.24
2022-10-18T14:33:58.330Z,63.80
2022-10-18T14:36:29.430Z,63.33
2022-10-18T14:39:07.688Z,63.93
2022-10-18T14:41:36.564Z,64.29
2022-10-18T14:44:22.074Z,64.33
2022-10-18T14:46:59.299Z,64.74
2022-10-18T14:49:26.478Z,64.73
2022-10-18T14:51:56.621Z,64.71
2022-10-18T14:54:36.495Z,64.99
2022-10-18T14:57:04.703Z,65.03
2022-10-18T14:59:44.812Z,65.20
2022-10-18T15:02:17.800Z,65.47
2022-10-18T15:04:47.124Z,65.81
2022-10-18T15:07:17.352Z,65.72
2022-10-18T15:09:45.542Z,65.75
2022-10-18T15:12:17.892Z,65.89
2022-10-18T15:14:46.644Z,66.14
2022-10-18T15:17:28.479Z,66.53
2022-10-18T15:20:06.235Z,66.39
2022-10-18T15:22:33.989Z,66.69
2022-10-18T15:25:12.648Z,66.82
2022-10-18T15:30:12.513Z,67.33
2022-10-18T15:32:48.479Z,67.24
2022-10-18T15:35:30.431Z,67.34
2022-10-18T15:38:00.265Z,67.55
2022-10-18T15:40:35.995Z,67.33
2022-10-18T15:43:24.327Z,67.56
2022-10-18T15:46:03.233Z,67.47
2022-10-18T15:48:32.926Z,67.62
2022-10-18T15:51:04.291Z,67.63
2022-10-18T15:53:50.169Z,67.61
2022-10-18T15:56:28.893Z,67.46
2022-10-18T15:58:57.300Z,67.91
2022-10-18T16:01:33.315Z,67.72
2022-10-18T16:04:01.953Z,67.53
2022-10-18T16:06:28.965Z,67.58
2022-10-18T16:08:55.958Z,67.68
2022-10-18T16:11:25.403Z,67.98
2022-10-18T16:13:56.393Z,67.94
2022-10-18T16:16:28.936Z,67.46
2022-10-18T16:18:56.398Z,68.18
2022-10-18T16:21:26.693Z,67.71
2022-10-18T16:23:54.046Z,68.08
2022-10-18T16:26:21.714Z,68.05
2022-10-18T16:28:49.842Z,68.57
2022-10-18T16:31:20.984Z,68.94
2022-10-18T16:33:50.476Z,68.98
2022-10-18T16:36:24.974Z,68.74
2022-10-18T16:38:52.100Z,69.30
2022-10-18T16:41:18.999Z,69.46
2022-10-18T16:43:47.449Z,69.96
2022-10-18T16:46:22.748Z,69.85
2022-10-18T16:48:56.292Z,69.98
2022-10-18T16:51:23.582Z,69.83
2022-10-18T16:53:54.548Z,69.79
2022-10-18T16:56:25.121Z,70.52
2022-10-18T16:58:52.833Z,70.74
2022-10-18T17:01:22.505Z,70.58
2022-10-18T17:03:52.182Z,70.93
2022-10-18T17:06:28.295Z,71.22
2022-10-18T17:08:56.235Z,71.61
2022-10-18T17:11:26.292Z,71.85
2022-10-18T17:13:53.041Z,71.83
2022-10-18T17:18:58.197Z,72.19
2022-10-18T17:21:29.718Z,72.39
2022-10-18T17:24:01.183Z,72.31
2022-10-18T17:26:30.192Z,72.46
2022-10-18T17:29:01.734Z,72.50
2022-10-18T17:31:30.204Z,72.52
2022-10-18T17:33:58.672Z,72.85
2022-10-18T17:39:11.024Z,72.76
2022-10-18T17:41:37.696Z,72.80
2022-10-18T17:44:07.462Z,72.92
2022-10-18T17:46:35.432Z,73.40
2022-10-18T17:49:02.324Z,73.74
2022-10-18T17:51:32.139Z,73.77
2022-10-18T17:53:58.763Z,73.71
2022-10-18T17:56:31.009Z,74.03
2022-10-18T17:58:57.620Z,73.80
2022-10-18T18:01:24.857Z,74.34
2022-10-18T18:03:57.507Z,74.06
2022-10-18T18:06:31.034Z,73.84
2022-10-18T18:08:59.495Z,73.80
2022-10-18T18:11:26.711Z,73.80
2022-10-18T18:13:55.913Z,74.08
2022-10-18T18:16:26.031Z,73.90
2022-10-18T18:18:56.387Z,73.38
2022-10-18T18:21:23.939Z,73.35
2022-10-18T18:23:52.834Z,72.90
2022-10-18T18:26:20.952Z,73.10
2022-10-18T18:28:48.033Z,73.41
2022-10-18T18:31:17.773Z,73.01
2022-10-18T18:33:45.071Z,73.22
2022-10-18T18:36:12.564Z,73.18
2022-10-18T18:38:42.759Z,73.13
2022-10-18T18:41:12.858Z,73.99
2022-10-18T18:43:43.024Z,74.49
2022-10-18T18:46:11.181Z,74.31
2022-10-18T18:48:40.220Z,74.14
2022-10-18T18:51:10.806Z,74.78
2022-10-18T18:53:39.900Z,74.49
2022-10-18T18:56:11.700Z,74.80
2022-10-18T18:58:39.458Z,74.08
2022-10-18T19:01:12.480Z,75.02
2022-10-18T19:03:40.332Z,74.75
2022-10-18T19:06:15.707Z,74.98
2022-10-18T19:08:46.320Z,73.55
2022-10-18T19:11:18.753Z,73.99
2022-10-18T19:13:45.907Z,74.49
2022-10-18T19:16:31.924Z,74.02
2022-10-18T19:19:16.901Z,74.50
2022-10-18T19:21:48.193Z,73.86
2022-10-18T19:24:16.093Z,71.74
2022-10-18T19:26:45.821Z,72.83
2022-10-18T19:29:23.222Z,68.24
2022-10-18T19:31:51.259Z,70.54
2022-10-18T19:34:19.324Z,71.12
2022-10-18T19:36:48.152Z,71.87
2022-10-18T19:39:19.765Z,71.85
2022-10-18T19:41:49.443Z,71.68
2022-10-18T19:44:21.997Z,69.83
2022-10-18T19:46:49.102Z,70.18
2022-10-18T19:49:16.804Z,70.10
2022-10-18T19:51:43.641Z,70.06
2022-10-18T19:54:12.137Z,70.62
2022-10-18T19:56:38.869Z,71.30
2022-10-18T19:59:05.555Z,71.61
2022-10-18T20:01:35.354Z,72.52
2022-10-18T20:04:04.424Z,73.28
2022-10-18T20:06:31.896Z,74.14
2022-10-18T20:08:58.618Z,74.24
2022-10-18T20:11:27.594Z,74.59
2022-10-18T20:13:58.228Z,74.88
2022-10-18T20:16:30.452Z,74.52
2022-10-18T20:19:07.529Z,74.80
2022-10-18T20:21:37.297Z,74.20
2022-10-18T20:24:05.501Z,73.97
2022-10-18T20:26:32.879Z,74.24
2022-10-18T20:29:00.045Z,74.22
2022-10-18T20:31:32.306Z,74.19
2022-10-18T20:34:01.409Z,74.22
2022-10-18T20:36:30.210Z,74.40
2022-10-18T20:38:57.522Z,74.39
2022-10-18T20:41:30.542Z,74.78
2022-10-18T20:44:00.068Z,74.50
2022-10-18T20:46:31.562Z,74.09
2022-10-18T20:48:58.592Z,74.26
2022-10-18T20:51:25.726Z,74.42
2022-10-18T20:53:53.531Z,75.16
2022-10-18T20:56:26.701Z,74.57
2022-10-18T20:58:57.833Z,75.05
2022-10-18T21:01:29.824Z,75.57
2022-10-18T21:03:58.517Z,76.01
2022-10-18T21:06:27.638Z,76.74
2022-10-18T21:08:56.474Z,76.94
2022-10-18T21:11:24.602Z,77.41
2022-10-18T21:13:52.998Z,77.09
2022-10-18T21:16:19.964Z,76.73
2022-10-18T21:18:46.847Z,76.88
2022-10-18T21:21:19.567Z,77.43
2022-10-18T21:23:47.344Z,77.49
2022-10-18T21:26:26.305Z,77.69
2022-10-18T21:28:58.600Z,77.49
2022-10-18T21:31:27.988Z,77.78
2022-10-18T21:33:59.873Z,77.92
2022-10-18T21:36:30.956Z,77.65
2022-10-18T21:38:57.619Z,77.89
2022-10-18T21:41:24.523Z,78.17
2022-10-18T21:43:54.637Z,78.70
2022-10-18T21:46:22.238Z,78.23
2022-10-18T21:48:51.937Z,78.56
2022-10-18T21:51:21.435Z,78.25
2022-10-18T21:53:50.560Z,78.77
2022-10-18T21:56:22.509Z,78.67
2022-10-18T21:58:52.676Z,79.05
2022-10-18T22:01:20.515Z,79.02
2022-10-18T22:03:49.697Z,79.29
2022-10-18T22:06:17.221Z,79.04
2022-10-18T22:08:55.376Z,79.16
2022-10-18T22:11:30.715Z,79.12
2022-10-18T22:13:57.744Z,79.58
2022-10-18T22:16:24.988Z,79.73
2022-10-18T22:18:52.662Z,80.16
2022-10-18T22:21:20.614Z,81.05
2022-10-18T22:23:50.068Z,81.20
2022-10-18T22:26:20.185Z,81.10
2022-10-18T22:28:47.457Z,80.94
2022-10-18T22:31:17.524Z,81.45
2022-10-18T22:33:45.267Z,81.72
2022-10-18T22:36:12.874Z,81.78
2022-10-18T22:38:39.640Z,82.11
2022-10-18T22:41:08.241Z,82.10
2022-10-18T22:43:35.132Z,82.24
2022-10-18T22:46:03.815Z,82.98
2022-10-18T22:48:30.991Z,82.86
2022-10-18T22:50:57.716Z,83.32
2022-10-18T22:53:24.436Z,83.10
2022-10-18T22:55:51.788Z,83.10
2022-10-18T22:58:20.232Z,83.28
2022-10-18T23:00:47.152Z,83.22
2022-10-18T23:03:18.349Z,83.23
2022-10-18T23:05:46.791Z,83.58
2022-10-18T23:08:14.472Z,83.23
2022-10-18T23:10:42.526Z,83.45
2022-10-18T23:13:10.791Z,83.52
2022-10-18T23:15:40.439Z,83.96
2022-10-18T23:18:07.081Z,84.10
2022-10-18T23:20:33.765Z,83.87
2022-10-18T23:23:00.304Z,84.03
2022-10-18T23:25:27.307Z,83.81
2022-10-18T23:27:54.426Z,84.36
2022-10-18T23:30:21.020Z,83.89
2022-10-18T23:32:47.702Z,84.14
2022-10-18T23:35:14.366Z,84.24
2022-10-18T23:37:40.999Z,84.29
2022-10-18T23:40:08.460Z,84.20
2022-10-18T23:42:35.094Z,84.10
2022-10-18T23:45:01.869Z,83.58
2022-10-18T23:47:28.710Z,83.73
2022-10-18T23:49:57.253Z,83.50
2022-10-18T23:52:24.796Z,83.37
2022-10-18T23:54:51.417Z,83.54
2022-10-18T23:57:18.114Z,83.43
2022-10-18T23:59:44.718Z,83.92
